Olmida — ZCNU4 — position and weather

sailwx.info

Track history (hours):
 
Tides and Currents Weather Stations Pressure Air Temp Water Temp Dewpoint Dewpoint Depression Visibility Wind Speed Wind Dir Waves Ship Positions

Olmida

Last reported at 2014-Jul-24 04:16 UTC. Time now 2014-Jul-24 05:58 UTC.
Position N 43°16' E 006°37'.

; draft 3.2 m.

Type: Pleasure craft. MMSI: 319196000.

Date/timePositionNaut miles runAvg speedWind from/ knotsBaromVisibWave heightAir tempDewpointWater temp
2014-Jul-24 04:16N 43°16' E 006°37'0 0.0
2014-Jul-24 02:10N 43°16' E 006°37'0 0.0
2014-Jul-24 00:19N 43°16' E 006°37'0 0.0
2014-Jul-23 21:28N 43°16' E 006°37'0 0.0
2014-Jul-23 20:22N 43°16' E 006°37'0 0.0
2014-Jul-23 19:28N 43°16' E 006°37'0 0.0
2014-Jul-23 18:22N 43°16' E 006°37'0 0.0
2014-Jul-23 17:22N 43°16' E 006°37'3 3.1
2014-Jul-23 16:33N 43°18' E 006°40'8 7.4
2014-Jul-23 15:25N 43°25' E 006°45'0 0.0
2014-Jul-23 14:28N 43°25' E 006°45'0 0.0
2014-Jul-23 13:28N 43°25' E 006°46'0 0.0
2014-Jul-23 12:25N 43°25' E 006°45'0 0.0
2014-Jul-23 11:04N 43°25' E 006°46'0 0.0
2014-Jul-23 10:16N 43°25' E 006°45'0 0.0
2014-Jul-23 09:31N 43°25' E 006°45'0 0.0
2014-Jul-23 08:28N 43°25' E 006°45'0 0.0
2014-Jul-23 07:28N 43°25' E 006°46'0 0.0
2014-Jul-23 06:33N 43°25' E 006°46'0 0.0
2014-Jul-23 05:27N 43°25' E 006°46'0 0.0
2014-Jul-23 04:33N 43°25' E 006°46'0 0.0
2014-Jul-23 03:21N 43°25' E 006°46'0 0.0
2014-Jul-23 02:21N 43°25' E 006°46'0 0.0
2014-Jul-23 01:33N 43°25' E 006°46'0 0.0
2014-Jul-23 00:21N 43°25' E 006°46'0 0.0
2014-Jul-22 23:33N 43°25' E 006°46'0 0.0
2014-Jul-22 22:33N 43°25' E 006°46'0 0.0
2014-Jul-22 21:33N 43°25' E 006°45'0 0.0
2014-Jul-22 20:33N 43°25' E 006°45'0 0.0
2014-Jul-22 19:33N 43°25' E 006°45'0 0.0
2014-Jul-22 18:33N 43°25' E 006°45'0 0.0
2014-Jul-22 17:33N 43°25' E 006°45'0 0.0
2014-Jul-22 16:27N 43°25' E 006°45'0 0.0
2014-Jul-22 15:30N 43°25' E 006°45'8 8.5
2014-Jul-22 14:33N 43°18' E 006°40'2 1.6
2014-Jul-22 13:31N 43°16' E 006°39'0 0.0
2014-Jul-22 12:31N 43°16' E 006°39'0 0.0
2014-Jul-22 11:31N 43°16' E 006°39'0 0.0
2014-Jul-22 10:31N 43°16' E 006°39'0 0.0
2014-Jul-22 09:31N 43°16' E 006°39'0 0.0
2014-Jul-22 08:33N 43°16' E 006°40'0 0.0
2014-Jul-22 07:21N 43°16' E 006°40'0 0.0
2014-Jul-22 06:27N 43°16' E 006°40'0 0.0
2014-Jul-22 05:30N 43°16' E 006°40'0 0.0
2014-Jul-22 04:24N 43°16' E 006°40'0 0.0
2014-Jul-22 03:27N 43°16' E 006°40'0 0.0
2014-Jul-22 00:30N 43°16' E 006°40'0 0.0
2014-Jul-21 23:21N 43°16' E 006°40'0 0.0
2014-Jul-21 22:33N 43°16' E 006°40'0 0.0
2014-Jul-21 21:24N 43°16' E 006°40'0 0.0
2014-Jul-21 20:24N 43°16' E 006°40'0 0.1
2014-Jul-21 20:06N 43°16' E 006°40'0 0.0
2014-Jul-21 19:33N 43°16' E 006°40'0 0.0
2014-Jul-21 16:30N 43°16' E 006°39'0 0.0
2014-Jul-21 15:27N 43°16' E 006°39'0 0.0
2014-Jul-21 13:30N 43°16' E 006°40'0 0.0
2014-Jul-21 12:30N 43°16' E 006°40'0 0.0
2014-Jul-21 11:30N 43°16' E 006°40'0 0.0
2014-Jul-21 10:21N 43°16' E 006°40'0 0.0
2014-Jul-21 09:23N 43°16' E 006°40'0 0.0
2014-Jul-21 08:33N 43°16' E 006°40'0 0.0
2014-Jul-21 07:33N 43°16' E 006°40'0 0.0
2014-Jul-21 06:33N 43°16' E 006°40'0 0.0
2014-Jul-21 05:33N 43°16' E 006°40'0 0.0
2014-Jul-21 04:33N 43°16' E 006°40'0 0.0
2014-Jul-21 03:33N 43°16' E 006°40'0 0.0
2014-Jul-21 02:33N 43°16' E 006°40'0 0.0
2014-Jul-21 01:33N 43°16' E 006°40'0 0.0
2014-Jul-21 00:33N 43°16' E 006°40'0 0.0
2014-Jul-20 23:33N 43°16' E 006°40'0 0.0
2014-Jul-20 22:33N 43°16' E 006°40'0 0.0
2014-Jul-20 21:30N 43°16' E 006°39'0 0.0
2014-Jul-20 20:31N 43°16' E 006°39'0 0.0
2014-Jul-20 19:32N 43°16' E 006°39'0 0.0
2014-Jul-20 18:32N 43°16' E 006°39'0 0.0
2014-Jul-20 17:33N 43°16' E 006°39'0 0.0
2014-Jul-20 16:33N 43°16' E 006°39'0 0.0
2014-Jul-20 15:33N 43°16' E 006°39'0 0.0
2014-Jul-20 14:33N 43°16' E 006°39'0 0.0
2014-Jul-20 13:33N 43°16' E 006°39'0 0.0
2014-Jul-20 12:33N 43°16' E 006°39'0 0.0
2014-Jul-20 11:33N 43°16' E 006°39'0 0.0
2014-Jul-20 10:31N 43°16' E 006°39'3 2.7
2014-Jul-20 09:33N 43°16' E 006°43'3 3.2
2014-Jul-20 08:33N 43°13' E 006°40'0 0.0
2014-Jul-20 07:33N 43°13' E 006°40'0 0.0
2014-Jul-20 06:33N 43°13' E 006°40'0 0.0
2014-Jul-20 05:33N 43°13' E 006°40'0 0.0
2014-Jul-20 04:33N 43°13' E 006°40'0 0.0
2014-Jul-20 03:33N 43°13' E 006°40'0 0.0
2014-Jul-20 02:33N 43°13' E 006°40'0 0.0
2014-Jul-20 01:33N 43°13' E 006°40'0 0.0
2014-Jul-20 00:33N 43°13' E 006°40'0 0.0
2014-Jul-19 23:33N 43°13' E 006°40'0 0.0
2014-Jul-19 22:33N 43°13' E 006°40'0 0.0
2014-Jul-19 21:33N 43°13' E 006°40'0 0.0
2014-Jul-19 20:33N 43°13' E 006°40'0 0.0
2014-Jul-19 19:33N 43°13' E 006°40'0 0.0
2014-Jul-19 18:33N 43°13' E 006°40'0 0.0
2014-Jul-19 17:33N 43°13' E 006°40'0 0.0
2014-Jul-19 16:33N 43°13' E 006°40'0 0.0
2014-Jul-19 15:33N 43°13' E 006°40'0 0.0
2014-Jul-19 14:33N 43°13' E 006°40'0 0.0
2014-Jul-19 13:33N 43°13' E 006°40'0 0.0
2014-Jul-19 12:33N 43°13' E 006°40'0 0.0
2014-Jul-19 11:33N 43°13' E 006°40'0 0.0
2014-Jul-19 10:33N 43°13' E 006°40'4 3.7
2014-Jul-19 09:33N 43°17' E 006°39'1 1.2
2014-Jul-19 08:33N 43°18' E 006°38'0 0.0
2014-Jul-19 07:33N 43°18' E 006°38'0 0.0
2014-Jul-19 06:32N 43°18' E 006°38'0 0.0
2014-Jul-19 05:33N 43°18' E 006°38'0 0.0
2014-Jul-19 04:31N 43°18' E 006°38'0 0.0
2014-Jul-19 03:32N 43°18' E 006°38'0 0.0
2014-Jul-19 02:17N 43°18' E 006°38'0 0.0
2014-Jul-19 01:28N 43°18' E 006°38'0 0.0
2014-Jul-19 00:31N 43°18' E 006°38'1112.0
2014-Jul-18 23:33N 43°22' E 006°53'1312.8
2014-Jul-18 22:33N 43°31' E 007°05'2 1.6
2014-Jul-18 21:33N 43°32' E 007°03'0 0.0
2014-Jul-18 20:33N 43°32' E 007°03'0 0.0
2014-Jul-18 19:33N 43°32' E 007°03'0 0.0
2014-Jul-18 18:33N 43°32' E 007°03'0 0.0
2014-Jul-18 17:33N 43°32' E 007°03'0 0.0
2014-Jul-18 16:33N 43°32' E 007°03'0 0.0
2014-Jul-18 15:33N 43°32' E 007°03'0 0.0
2014-Jul-18 14:33N 43°32' E 007°03'0 0.0
2014-Jul-18 13:33N 43°32' E 007°03'0 0.0
2014-Jul-18 12:33N 43°32' E 007°03'0 0.0
2014-Jul-18 11:33N 43°32' E 007°03'0 0.0
2014-Jul-18 10:34N 43°32' E 007°03'3 3.0
2014-Jul-18 09:33N 43°32' E 007°07'1212.4
2014-Jul-18 08:33N 43°40' E 007°20'6 1.4
2014-Jul-18 04:20N 43°44' E 007°25'0 0.0
2014-Jul-18 00:07N 43°44' E 007°25'0 0.0
2014-Jul-17 23:19N 43°44' E 007°25'0 0.0
2014-Jul-17 22:33N 43°44' E 007°25'0 0.0
2014-Jul-17 20:16N 43°44' E 007°25'0 0.0
2014-Jul-17 19:26N 43°44' E 007°25'0 0.0
2014-Jul-17 17:26N 43°44' E 007°25'0 0.0
2014-Jul-17 08:03N 43°44' E 007°25'0 0.0
2014-Jul-16 14:30N 43°44' E 007°25'0 0.0
2014-Jul-16 13:33N 43°44' E 007°25'0 0.0
2014-Jul-16 12:29N 43°44' E 007°25'0 0.0
2014-Jul-15 10:16N 43°44' E 007°25'  
Track history (hours):
 
Tides and Currents Weather Stations Pressure Air Temp Water Temp Dewpoint Dewpoint Depression Visibility Wind Speed Wind Dir Waves Ship Positions

Olmida

Last reported at 2014-Jul-24 04:16 UTC. Time now 2014-Jul-24 05:58 UTC.
Position N 43°16' E 006°37'.

; draft 3.2 m.

Type: Pleasure craft. MMSI: 319196000.

Date/timePositionNaut miles runAvg speedWind from/ knotsBaromVisibWave heightAir tempDewpointWater temp
2014-Jul-24 04:16N 43°16' E 006°37'0 0.0
2014-Jul-24 02:10N 43°16' E 006°37'0 0.0
2014-Jul-24 00:19N 43°16' E 006°37'0 0.0
2014-Jul-23 21:28N 43°16' E 006°37'0 0.0
2014-Jul-23 20:22N 43°16' E 006°37'0 0.0
2014-Jul-23 19:28N 43°16' E 006°37'0 0.0
2014-Jul-23 18:22N 43°16' E 006°37'0 0.0
2014-Jul-23 17:22N 43°16' E 006°37'3 3.1
2014-Jul-23 16:33N 43°18' E 006°40'8 7.4
2014-Jul-23 15:25N 43°25' E 006°45'0 0.0
2014-Jul-23 14:28N 43°25' E 006°45'0 0.0
2014-Jul-23 13:28N 43°25' E 006°46'0 0.0
2014-Jul-23 12:25N 43°25' E 006°45'0 0.0
2014-Jul-23 11:04N 43°25' E 006°46'0 0.0
2014-Jul-23 10:16N 43°25' E 006°45'0 0.0
2014-Jul-23 09:31N 43°25' E 006°45'0 0.0
2014-Jul-23 08:28N 43°25' E 006°45'0 0.0
2014-Jul-23 07:28N 43°25' E 006°46'0 0.0
2014-Jul-23 06:33N 43°25' E 006°46'0 0.0
2014-Jul-23 05:27N 43°25' E 006°46'0 0.0
2014-Jul-23 04:33N 43°25' E 006°46'0 0.0
2014-Jul-23 03:21N 43°25' E 006°46'0 0.0
2014-Jul-23 02:21N 43°25' E 006°46'0 0.0
2014-Jul-23 01:33N 43°25' E 006°46'0 0.0
2014-Jul-23 00:21N 43°25' E 006°46'0 0.0
2014-Jul-22 23:33N 43°25' E 006°46'0 0.0
2014-Jul-22 22:33N 43°25' E 006°46'0 0.0
2014-Jul-22 21:33N 43°25' E 006°45'0 0.0
2014-Jul-22 20:33N 43°25' E 006°45'0 0.0
2014-Jul-22 19:33N 43°25' E 006°45'0 0.0
2014-Jul-22 18:33N 43°25' E 006°45'0 0.0
2014-Jul-22 17:33N 43°25' E 006°45'0 0.0
2014-Jul-22 16:27N 43°25' E 006°45'0 0.0
2014-Jul-22 15:30N 43°25' E 006°45'8 8.5
2014-Jul-22 14:33N 43°18' E 006°40'2 1.6
2014-Jul-22 13:31N 43°16' E 006°39'0 0.0
2014-Jul-22 12:31N 43°16' E 006°39'0 0.0
2014-Jul-22 11:31N 43°16' E 006°39'0 0.0
2014-Jul-22 10:31N 43°16' E 006°39'0 0.0
2014-Jul-22 09:31N 43°16' E 006°39'0 0.0
2014-Jul-22 08:33N 43°16' E 006°40'0 0.0
2014-Jul-22 07:21N 43°16' E 006°40'0 0.0
2014-Jul-22 06:27N 43°16' E 006°40'0 0.0
2014-Jul-22 05:30N 43°16' E 006°40'0 0.0
2014-Jul-22 04:24N 43°16' E 006°40'0 0.0
2014-Jul-22 03:27N 43°16' E 006°40'0 0.0
2014-Jul-22 00:30N 43°16' E 006°40'0 0.0
2014-Jul-21 23:21N 43°16' E 006°40'0 0.0
2014-Jul-21 22:33N 43°16' E 006°40'0 0.0
2014-Jul-21 21:24N 43°16' E 006°40'0 0.0
2014-Jul-21 20:24N 43°16' E 006°40'0 0.1
2014-Jul-21 20:06N 43°16' E 006°40'0 0.0
2014-Jul-21 19:33N 43°16' E 006°40'0 0.0
2014-Jul-21 16:30N 43°16' E 006°39'0 0.0
2014-Jul-21 15:27N 43°16' E 006°39'0 0.0
2014-Jul-21 13:30N 43°16' E 006°40'0 0.0
2014-Jul-21 12:30N 43°16' E 006°40'0 0.0
2014-Jul-21 11:30N 43°16' E 006°40'0 0.0
2014-Jul-21 10:21N 43°16' E 006°40'0 0.0
2014-Jul-21 09:23N 43°16' E 006°40'0 0.0
2014-Jul-21 08:33N 43°16' E 006°40'0 0.0
2014-Jul-21 07:33N 43°16' E 006°40'0 0.0
2014-Jul-21 06:33N 43°16' E 006°40'0 0.0
2014-Jul-21 05:33N 43°16' E 006°40'0 0.0
2014-Jul-21 04:33N 43°16' E 006°40'0 0.0
2014-Jul-21 03:33N 43°16' E 006°40'0 0.0
2014-Jul-21 02:33N 43°16' E 006°40'0 0.0
2014-Jul-21 01:33N 43°16' E 006°40'0 0.0
2014-Jul-21 00:33N 43°16' E 006°40'0 0.0
2014-Jul-20 23:33N 43°16' E 006°40'0 0.0
2014-Jul-20 22:33N 43°16' E 006°40'0 0.0
2014-Jul-20 21:30N 43°16' E 006°39'0 0.0
2014-Jul-20 20:31N 43°16' E 006°39'0 0.0
2014-Jul-20 19:32N 43°16' E 006°39'0 0.0
2014-Jul-20 18:32N 43°16' E 006°39'0 0.0
2014-Jul-20 17:33N 43°16' E 006°39'0 0.0
2014-Jul-20 16:33N 43°16' E 006°39'0 0.0
2014-Jul-20 15:33N 43°16' E 006°39'0 0.0
2014-Jul-20 14:33N 43°16' E 006°39'0 0.0
2014-Jul-20 13:33N 43°16' E 006°39'0 0.0
2014-Jul-20 12:33N 43°16' E 006°39'0 0.0
2014-Jul-20 11:33N 43°16' E 006°39'0 0.0
2014-Jul-20 10:31N 43°16' E 006°39'3 2.7
2014-Jul-20 09:33N 43°16' E 006°43'3 3.2
2014-Jul-20 08:33N 43°13' E 006°40'0 0.0
2014-Jul-20 07:33N 43°13' E 006°40'0 0.0
2014-Jul-20 06:33N 43°13' E 006°40'0 0.0
2014-Jul-20 05:33N 43°13' E 006°40'0 0.0
2014-Jul-20 04:33N 43°13' E 006°40'0 0.0
2014-Jul-20 03:33N 43°13' E 006°40'0 0.0
2014-Jul-20 02:33N 43°13' E 006°40'0 0.0
2014-Jul-20 01:33N 43°13' E 006°40'0 0.0
2014-Jul-20 00:33N 43°13' E 006°40'0 0.0
2014-Jul-19 23:33N 43°13' E 006°40'0 0.0
2014-Jul-19 22:33N 43°13' E 006°40'0 0.0
2014-Jul-19 21:33N 43°13' E 006°40'0 0.0
2014-Jul-19 20:33N 43°13' E 006°40'0 0.0
2014-Jul-19 19:33N 43°13' E 006°40'0 0.0
2014-Jul-19 18:33N 43°13' E 006°40'0 0.0
2014-Jul-19 17:33N 43°13' E 006°40'0 0.0
2014-Jul-19 16:33N 43°13' E 006°40'0 0.0
2014-Jul-19 15:33N 43°13' E 006°40'0 0.0
2014-Jul-19 14:33N 43°13' E 006°40'0 0.0
2014-Jul-19 13:33N 43°13' E 006°40'0 0.0
2014-Jul-19 12:33N 43°13' E 006°40'0 0.0
2014-Jul-19 11:33N 43°13' E 006°40'0 0.0
2014-Jul-19 10:33N 43°13' E 006°40'4 3.7
2014-Jul-19 09:33N 43°17' E 006°39'1 1.2
2014-Jul-19 08:33N 43°18' E 006°38'0 0.0
2014-Jul-19 07:33N 43°18' E 006°38'0 0.0
2014-Jul-19 06:32N 43°18' E 006°38'0 0.0
2014-Jul-19 05:33N 43°18' E 006°38'0 0.0
2014-Jul-19 04:31N 43°18' E 006°38'0 0.0
2014-Jul-19 03:32N 43°18' E 006°38'0 0.0
2014-Jul-19 02:17N 43°18' E 006°38'0 0.0
2014-Jul-19 01:28N 43°18' E 006°38'0 0.0
2014-Jul-19 00:31N 43°18' E 006°38'1112.0
2014-Jul-18 23:33N 43°22' E 006°53'1312.8
2014-Jul-18 22:33N 43°31' E 007°05'2 1.6
2014-Jul-18 21:33N 43°32' E 007°03'0 0.0
2014-Jul-18 20:33N 43°32' E 007°03'0 0.0
2014-Jul-18 19:33N 43°32' E 007°03'0 0.0
2014-Jul-18 18:33N 43°32' E 007°03'0 0.0
2014-Jul-18 17:33N 43°32' E 007°03'0 0.0
2014-Jul-18 16:33N 43°32' E 007°03'0 0.0
2014-Jul-18 15:33N 43°32' E 007°03'0 0.0
2014-Jul-18 14:33N 43°32' E 007°03'0 0.0
2014-Jul-18 13:33N 43°32' E 007°03'0 0.0
2014-Jul-18 12:33N 43°32' E 007°03'0 0.0
2014-Jul-18 11:33N 43°32' E 007°03'0 0.0
2014-Jul-18 10:34N 43°32' E 007°03'3 3.0
2014-Jul-18 09:33N 43°32' E 007°07'1212.4
2014-Jul-18 08:33N 43°40' E 007°20'6 1.4
2014-Jul-18 04:20N 43°44' E 007°25'0 0.0
2014-Jul-18 00:07N 43°44' E 007°25'0 0.0
2014-Jul-17 23:19N 43°44' E 007°25'0 0.0
2014-Jul-17 22:33N 43°44' E 007°25'0 0.0
2014-Jul-17 20:16N 43°44' E 007°25'0 0.0
2014-Jul-17 19:26N 43°44' E 007°25'0 0.0
2014-Jul-17 17:26N 43°44' E 007°25'0 0.0
2014-Jul-17 08:03N 43°44' E 007°25'0 0.0
2014-Jul-16 14:30N 43°44' E 007°25'0 0.0
2014-Jul-16 13:33N 43°44' E 007°25'0 0.0
2014-Jul-16 12:29N 43°44' E 007°25'0 0.0
2014-Jul-15 10:16N 43°44' E 007°25'  

Dump ship's entire track history